sensor_id;sensor_type;location;lat;lon;timestamp;P1;durP1;ratioP1;P2;durP2;ratioP2
56960;SDS011;42857;49.768;22.716;2022-07-06T00:01:24;10.80;;;9.80;;
56960;SDS011;42857;49.768;22.716;2022-07-06T00:03:50;10.63;;;9.52;;
56960;SDS011;42857;49.768;22.716;2022-07-06T00:06:16;11.45;;;10.23;;
56960;SDS011;42857;49.768;22.716;2022-07-06T00:08:43;10.75;;;9.65;;
56960;SDS011;42857;49.768;22.716;2022-07-06T00:11:09;10.25;;;9.30;;
56960;SDS011;42857;49.768;22.716;2022-07-06T00:13:35;11.05;;;10.00;;
56960;SDS011;42857;49.768;22.716;2022-07-06T00:16:01;12.60;;;11.18;;
56960;SDS011;42857;49.768;22.716;2022-07-06T00:18:27;11.90;;;10.73;;
56960;SDS011;42857;49.768;22.716;2022-07-06T00:20:53;12.23;;;11.10;;
56960;SDS011;42857;49.768;22.716;2022-07-06T00:23:19;11.68;;;10.52;;
56960;SDS011;42857;49.768;22.716;2022-07-06T00:25:45;11.43;;;10.32;;
56960;SDS011;42857;49.768;22.716;2022-07-06T00:28:13;13.95;;;11.52;;
56960;SDS011;42857;49.768;22.716;2022-07-06T00:30:39;11.90;;;10.80;;
56960;SDS011;42857;49.768;22.716;2022-07-06T00:33:05;10.85;;;9.85;;
56960;SDS011;42857;49.768;22.716;2022-07-06T00:35:31;12.48;;;11.05;;
56960;SDS011;42857;49.768;22.716;2022-07-06T00:37:56;12.27;;;11.02;;
56960;SDS011;42857;49.768;22.716;2022-07-06T00:40:22;15.75;;;10.23;;
56960;SDS011;42857;49.768;22.716;2022-07-06T00:42:48;15.13;;;11.88;;
56960;SDS011;42857;49.768;22.716;2022-07-06T00:45:15;12.20;;;10.70;;
56960;SDS011;42857;49.768;22.716;2022-07-06T00:47:41;13.88;;;10.45;;
56960;SDS011;42857;49.768;22.716;2022-07-06T00:50:09;13.18;;;11.85;;
56960;SDS011;42857;49.768;22.716;2022-07-06T00:55:17;12.70;;;11.52;;
56960;SDS011;42857;49.768;22.716;2022-07-06T00:57:44;12.23;;;11.02;;
56960;SDS011;42857;49.768;22.716;2022-07-06T01:00:11;13.48;;;11.63;;
56960;SDS011;42857;49.768;22.716;2022-07-06T01:02:37;13.63;;;11.52;;
56960;SDS011;42857;49.768;22.716;2022-07-06T01:05:04;12.50;;;11.18;;
56960;SDS011;42857;49.768;22.716;2022-07-06T01:07:30;13.48;;;11.82;;
56960;SDS011;42857;49.768;22.716;2022-07-06T01:09:56;12.60;;;11.32;;
56960;SDS011;42857;49.768;22.716;2022-07-06T01:12:22;13.35;;;11.98;;
56960;SDS011;42857;49.768;22.716;2022-07-06T01:14:49;14.18;;;11.63;;
56960;SDS011;42857;49.768;22.716;2022-07-06T01:17:15;13.63;;;11.93;;
56960;SDS011;42857;49.768;22.716;2022-07-06T01:19:41;12.32;;;10.77;;
56960;SDS011;42857;49.768;22.716;2022-07-06T01:22:08;12.90;;;11.60;;
56960;SDS011;42857;49.768;22.716;2022-07-06T01:24:37;13.07;;;11.27;;
56960;SDS011;42857;49.768;22.716;2022-07-06T01:27:03;13.25;;;11.70;;
56960;SDS011;42857;49.768;22.716;2022-07-06T01:29:30;14.63;;;11.80;;
56960;SDS011;42857;49.768;22.716;2022-07-06T01:31:56;15.15;;;12.40;;
56960;SDS011;42857;49.768;22.716;2022-07-06T01:34:22;13.02;;;11.63;;
56960;SDS011;42857;49.768;22.716;2022-07-06T01:36:48;12.75;;;11.55;;
56960;SDS011;42857;49.768;22.716;2022-07-06T01:39:14;14.00;;;11.65;;
56960;SDS011;42857;49.768;22.716;2022-07-06T01:41:41;13.38;;;11.98;;
56960;SDS011;42857;49.768;22.716;2022-07-06T01:44:07;13.80;;;12.40;;
56960;SDS011;42857;49.768;22.716;2022-07-06T01:46:33;12.45;;;11.25;;
56960;SDS011;42857;49.768;22.716;2022-07-06T01:48:59;14.48;;;12.07;;
56960;SDS011;42857;49.768;22.716;2022-07-06T01:51:25;12.85;;;11.55;;
56960;SDS011;42857;49.768;22.716;2022-07-06T01:53:51;11.65;;;10.57;;
56960;SDS011;42857;49.768;22.716;2022-07-06T01:56:17;13.48;;;10.98;;
56960;SDS011;42857;49.768;22.716;2022-07-06T01:58:44;14.02;;;11.20;;
56960;SDS011;42857;49.768;22.716;2022-07-06T02:01:11;13.55;;;12.25;;
56960;SDS011;42857;49.768;22.716;2022-07-06T02:03:37;13.65;;;12.15;;
56960;SDS011;42857;49.768;22.716;2022-07-06T02:06:04;13.95;;;12.00;;
56960;SDS011;42857;49.768;22.716;2022-07-06T02:08:30;12.40;;;11.20;;
56960;SDS011;42857;49.768;22.716;2022-07-06T02:10:56;13.15;;;11.85;;
56960;SDS011;42857;49.768;22.716;2022-07-06T02:13:22;12.65;;;11.55;;
56960;SDS011;42857;49.768;22.716;2022-07-06T02:15:48;12.93;;;11.63;;
56960;SDS011;42857;49.768;22.716;2022-07-06T02:18:14;12.52;;;11.25;;
56960;SDS011;42857;49.768;22.716;2022-07-06T02:20:40;12.60;;;11.30;;
56960;SDS011;42857;49.768;22.716;2022-07-06T02:23:06;13.50;;;11.32;;
56960;SDS011;42857;49.768;22.716;2022-07-06T02:25:32;12.90;;;11.60;;
56960;SDS011;42857;49.768;22.716;2022-07-06T02:27:58;12.82;;;11.52;;
56960;SDS011;42857;49.768;22.716;2022-07-06T02:30:24;11.82;;;10.65;;
56960;SDS011;42857;49.768;22.716;2022-07-06T02:32:50;11.50;;;10.07;;
56960;SDS011;42857;49.768;22.716;2022-07-06T02:35:16;12.23;;;11.02;;
56960;SDS011;42857;49.768;22.716;2022-07-06T02:37:42;10.80;;;9.80;;
56960;SDS011;42857;49.768;22.716;2022-07-06T02:40:08;9.75;;;8.82;;
56960;SDS011;42857;49.768;22.716;2022-07-06T02:42:35;10.18;;;9.18;;
56960;SDS011;42857;49.768;22.716;2022-07-06T02:45:01;10.88;;;9.77;;
56960;SDS011;42857;49.768;22.716;2022-07-06T02:47:27;87.35;;;13.35;;
56960;SDS011;42857;49.768;22.716;2022-07-06T02:49:53;895.58;;;52.80;;
56960;SDS011;42857;49.768;22.716;2022-07-06T02:52:19;14.77;;;12.60;;
56960;SDS011;42857;49.768;22.716;2022-07-06T02:54:45;18.90;;;13.35;;
56960;SDS011;42857;49.768;22.716;2022-07-06T02:57:11;12.95;;;10.77;;
56960;SDS011;42857;49.768;22.716;2022-07-06T02:59:37;9.30;;;7.63;;
56960;SDS011;42857;49.768;22.716;2022-07-06T03:02:03;9.45;;;7.82;;
56960;SDS011;42857;49.768;22.716;2022-07-06T03:04:29;15.15;;;8.38;;
56960;SDS011;42857;49.768;22.716;2022-07-06T03:06:55;9.55;;;7.10;;
56960;SDS011;42857;49.768;22.716;2022-07-06T03:09:21;8.43;;;7.13;;
56960;SDS011;42857;49.768;22.716;2022-07-06T03:11:47;9.32;;;6.80;;
56960;SDS011;42857;49.768;22.716;2022-07-06T03:14:13;7.88;;;6.03;;
56960;SDS011;42857;49.768;22.716;2022-07-06T03:16:39;7.18;;;5.22;;
56960;SDS011;42857;49.768;22.716;2022-07-06T03:19:06;5.68;;;4.13;;
56960;SDS011;42857;49.768;22.716;2022-07-06T03:21:32;4.45;;;3.83;;
56960;SDS011;42857;49.768;22.716;2022-07-06T03:23:57;5.85;;;4.47;;
56960;SDS011;42857;49.768;22.716;2022-07-06T03:26:23;7.47;;;4.65;;
56960;SDS011;42857;49.768;22.716;2022-07-06T03:28:49;3.88;;;3.47;;
56960;SDS011;42857;49.768;22.716;2022-07-06T03:31:15;4.93;;;3.28;;
56960;SDS011;42857;49.768;22.716;2022-07-06T03:33:41;3.83;;;2.70;;
56960;SDS011;42857;49.768;22.716;2022-07-06T03:36:07;3.15;;;2.72;;
56960;SDS011;42857;49.768;22.716;2022-07-06T03:38:34;5.82;;;2.60;;
56960;SDS011;42857;49.768;22.716;2022-07-06T03:41:00;3.28;;;2.50;;
56960;SDS011;42857;49.768;22.716;2022-07-06T03:43:26;3.08;;;1.98;;
56960;SDS011;42857;49.768;22.716;2022-07-06T03:45:52;3.75;;;2.30;;
56960;SDS011;42857;49.768;22.716;2022-07-06T03:48:18;2.33;;;1.65;;
56960;SDS011;42857;49.768;22.716;2022-07-06T03:50:44;3.38;;;1.98;;
56960;SDS011;42857;49.768;22.716;2022-07-06T03:53:09;3.72;;;1.90;;
56960;SDS011;42857;49.768;22.716;2022-07-06T03:55:36;4.40;;;2.20;;
56960;SDS011;42857;49.768;22.716;2022-07-06T03:58:02;1.83;;;1.67;;
56960;SDS011;42857;49.768;22.716;2022-07-06T04:00:28;3.47;;;1.67;;
56960;SDS011;42857;49.768;22.716;2022-07-06T04:02:54;2.03;;;1.83;;
56960;SDS011;42857;49.768;22.716;2022-07-06T04:05:19;3.47;;;1.75;;
56960;SDS011;42857;49.768;22.716;2022-07-06T04:07:49;4.95;;;2.08;;
56960;SDS011;42857;49.768;22.716;2022-07-06T04:10:15;3.63;;;2.20;;
56960;SDS011;42857;49.768;22.716;2022-07-06T04:12:42;2.33;;;2.03;;
56960;SDS011;42857;49.768;22.716;2022-07-06T04:15:08;2.80;;;2.00;;
56960;SDS011;42857;49.768;22.716;2022-07-06T04:17:34;4.03;;;2.20;;
56960;SDS011;42857;49.768;22.716;2022-07-06T04:20:22;2.22;;;1.73;;
56960;SDS011;42857;49.768;22.716;2022-07-06T04:22:48;7.07;;;2.55;;
56960;SDS011;42857;49.768;22.716;2022-07-06T04:25:14;3.05;;;2.13;;
56960;SDS011;42857;49.768;22.716;2022-07-06T04:27:40;4.65;;;2.33;;
56960;SDS011;42857;49.768;22.716;2022-07-06T04:30:07;2.60;;;2.35;;
56960;SDS011;42857;49.768;22.716;2022-07-06T04:32:33;4.05;;;1.67;;
56960;SDS011;42857;49.768;22.716;2022-07-06T04:34:59;3.25;;;2.95;;
56960;SDS011;42857;49.768;22.716;2022-07-06T04:37:25;2.20;;;1.92;;
56960;SDS011;42857;49.768;22.716;2022-07-06T04:39:51;3.47;;;2.20;;
56960;SDS011;42857;49.768;22.716;2022-07-06T04:42:17;2.05;;;1.85;;
56960;SDS011;42857;49.768;22.716;2022-07-06T04:44:43;2.78;;;2.00;;
56960;SDS011;42857;49.768;22.716;2022-07-06T04:47:08;1.63;;;1.52;;
56960;SDS011;42857;49.768;22.716;2022-07-06T04:49:34;1.98;;;1.67;;
56960;SDS011;42857;49.768;22.716;2022-07-06T04:52:01;2.53;;;2.33;;
56960;SDS011;42857;49.768;22.716;2022-07-06T04:54:27;2.15;;;1.95;;
56960;SDS011;42857;49.768;22.716;2022-07-06T04:56:53;2.80;;;1.98;;
56960;SDS011;42857;49.768;22.716;2022-07-06T04:59:19;3.50;;;2.00;;
56960;SDS011;42857;49.768;22.716;2022-07-06T05:01:44;3.03;;;1.80;;
56960;SDS011;42857;49.768;22.716;2022-07-06T05:04:10;2.15;;;1.95;;
56960;SDS011;42857;49.768;22.716;2022-07-06T05:06:39;3.20;;;1.95;;
56960;SDS011;42857;49.768;22.716;2022-07-06T05:09:06;1.95;;;1.80;;
56960;SDS011;42857;49.768;22.716;2022-07-06T05:11:31;1.70;;;1.60;;
56960;SDS011;42857;49.768;22.716;2022-07-06T05:13:57;1.90;;;1.70;;
56960;SDS011;42857;49.768;22.716;2022-07-06T05:16:23;2.17;;;1.80;;
56960;SDS011;42857;49.768;22.716;2022-07-06T05:18:49;2.90;;;1.77;;
56960;SDS011;42857;49.768;22.716;2022-07-06T05:21:15;2.45;;;1.73;;
56960;SDS011;42857;49.768;22.716;2022-07-06T05:23:41;1.90;;;1.73;;
56960;SDS011;42857;49.768;22.716;2022-07-06T05:26:07;2.03;;;1.58;;
56960;SDS011;42857;49.768;22.716;2022-07-06T05:28:33;1.80;;;1.55;;
56960;SDS011;42857;49.768;22.716;2022-07-06T05:30:59;1.70;;;1.60;;
56960;SDS011;42857;49.768;22.716;2022-07-06T05:33:27;1.83;;;1.50;;
56960;SDS011;42857;49.768;22.716;2022-07-06T05:35:53;1.80;;;1.70;;
56960;SDS011;42857;49.768;22.716;2022-07-06T05:38:19;1.70;;;1.60;;
56960;SDS011;42857;49.768;22.716;2022-07-06T05:40:45;1.80;;;1.70;;
56960;SDS011;42857;49.768;22.716;2022-07-06T05:43:11;1.70;;;1.60;;
56960;SDS011;42857;49.768;22.716;2022-07-06T05:45:37;3.13;;;1.67;;
56960;SDS011;42857;49.768;22.716;2022-07-06T05:48:05;2.17;;;1.92;;
56960;SDS011;42857;49.768;22.716;2022-07-06T05:50:50;2.13;;;2.00;;
56960;SDS011;42857;49.768;22.716;2022-07-06T05:53:16;2.60;;;2.40;;
56960;SDS011;42857;49.768;22.716;2022-07-06T05:55:42;4.03;;;2.42;;
56960;SDS011;42857;49.768;22.716;2022-07-06T05:58:08;2.63;;;2.42;;
56960;SDS011;42857;49.768;22.716;2022-07-06T06:00:34;3.10;;;2.35;;
56960;SDS011;42857;49.768;22.716;2022-07-06T06:03:00;2.80;;;2.60;;
56960;SDS011;42857;49.768;22.716;2022-07-06T06:05:26;2.67;;;2.47;;
56960;SDS011;42857;49.768;22.716;2022-07-06T06:07:52;2.83;;;2.63;;
56960;SDS011;42857;49.768;22.716;2022-07-06T06:10:19;3.10;;;2.90;;
56960;SDS011;42857;49.768;22.716;2022-07-06T06:12:46;3.05;;;2.85;;
56960;SDS011;42857;49.768;22.716;2022-07-06T06:15:12;3.47;;;3.17;;
56960;SDS011;42857;49.768;22.716;2022-07-06T06:17:39;3.08;;;2.88;;
56960;SDS011;42857;49.768;22.716;2022-07-06T06:20:06;3.80;;;3.50;;
56960;SDS011;42857;49.768;22.716;2022-07-06T06:22:48;3.50;;;3.20;;
56960;SDS011;42857;49.768;22.716;2022-07-06T06:25:15;3.90;;;3.30;;
56960;SDS011;42857;49.768;22.716;2022-07-06T06:27:41;3.63;;;3.33;;
56960;SDS011;42857;49.768;22.716;2022-07-06T06:30:07;4.03;;;3.65;;
56960;SDS011;42857;49.768;22.716;2022-07-06T06:32:34;3.92;;;3.63;;
56960;SDS011;42857;49.768;22.716;2022-07-06T06:35:00;3.28;;;2.97;;
56960;SDS011;42857;49.768;22.716;2022-07-06T06:37:26;3.38;;;3.08;;
56960;SDS011;42857;49.768;22.716;2022-07-06T06:39:52;4.72;;;3.00;;
56960;SDS011;42857;49.768;22.716;2022-07-06T06:42:18;2.90;;;2.70;;
56960;SDS011;42857;49.768;22.716;2022-07-06T06:44:44;3.10;;;2.85;;
56960;SDS011;42857;49.768;22.716;2022-07-06T06:47:09;3.17;;;2.92;;
56960;SDS011;42857;49.768;22.716;2022-07-06T06:49:35;2.75;;;2.55;;
56960;SDS011;42857;49.768;22.716;2022-07-06T06:52:01;2.70;;;2.50;;
56960;SDS011;42857;49.768;22.716;2022-07-06T06:54:27;3.40;;;2.33;;
56960;SDS011;42857;49.768;22.716;2022-07-06T06:56:53;2.85;;;2.22;;
56960;SDS011;42857;49.768;22.716;2022-07-06T06:59:19;2.80;;;2.60;;
56960;SDS011;42857;49.768;22.716;2022-07-06T07:01:45;2.67;;;2.47;;
56960;SDS011;42857;49.768;22.716;2022-07-06T07:04:11;2.95;;;2.65;;
56960;SDS011;42857;49.768;22.716;2022-07-06T07:06:37;3.33;;;2.95;;
56960;SDS011;42857;49.768;22.716;2022-07-06T07:09:03;3.50;;;3.20;;
56960;SDS011;42857;49.768;22.716;2022-07-06T07:11:30;3.58;;;3.28;;
56960;SDS011;42857;49.768;22.716;2022-07-06T07:13:56;3.40;;;3.10;;
56960;SDS011;42857;49.768;22.716;2022-07-06T07:16:22;3.47;;;3.17;;
56960;SDS011;42857;49.768;22.716;2022-07-06T07:18:49;3.25;;;2.95;;
56960;SDS011;42857;49.768;22.716;2022-07-06T07:21:15;4.00;;;2.83;;
56960;SDS011;42857;49.768;22.716;2022-07-06T07:23:41;3.63;;;3.03;;
56960;SDS011;42857;49.768;22.716;2022-07-06T07:26:07;3.45;;;2.75;;
56960;SDS011;42857;49.768;22.716;2022-07-06T07:28:33;3.22;;;3.00;;
56960;SDS011;42857;49.768;22.716;2022-07-06T07:30:59;3.08;;;2.72;;
56960;SDS011;42857;49.768;22.716;2022-07-06T07:33:25;3.15;;;2.92;;
56960;SDS011;42857;49.768;22.716;2022-07-06T07:35:51;3.20;;;2.90;;
56960;SDS011;42857;49.768;22.716;2022-07-06T07:38:17;5.78;;;2.78;;
56960;SDS011;42857;49.768;22.716;2022-07-06T07:40:43;2.90;;;2.70;;
56960;SDS011;42857;49.768;22.716;2022-07-06T07:43:09;3.40;;;2.97;;
56960;SDS011;42857;49.768;22.716;2022-07-06T07:45:35;3.92;;;3.35;;
56960;SDS011;42857;49.768;22.716;2022-07-06T07:48:01;3.42;;;3.13;;
56960;SDS011;42857;49.768;22.716;2022-07-06T07:50:27;6.22;;;2.78;;
56960;SDS011;42857;49.768;22.716;2022-07-06T07:52:54;3.08;;;2.78;;
56960;SDS011;42857;49.768;22.716;2022-07-06T07:55:20;3.33;;;3.00;;
56960;SDS011;42857;49.768;22.716;2022-07-06T07:57:46;3.28;;;2.47;;
56960;SDS011;42857;49.768;22.716;2022-07-06T08:00:12;2.65;;;2.45;;
56960;SDS011;42857;49.768;22.716;2022-07-06T08:02:38;2.40;;;2.20;;
56960;SDS011;42857;49.768;22.716;2022-07-06T08:05:04;2.00;;;1.90;;
56960;SDS011;42857;49.768;22.716;2022-07-06T08:07:30;2.35;;;2.15;;
56960;SDS011;42857;49.768;22.716;2022-07-06T08:09:56;2.55;;;1.98;;
56960;SDS011;42857;49.768;22.716;2022-07-06T08:12:22;2.60;;;2.35;;
56960;SDS011;42857;49.768;22.716;2022-07-06T08:14:48;2.92;;;2.60;;
56960;SDS011;42857;49.768;22.716;2022-07-06T08:17:15;2.80;;;2.30;;
56960;SDS011;42857;49.768;22.716;2022-07-06T08:19:40;2.72;;;2.53;;
56960;SDS011;42857;49.768;22.716;2022-07-06T08:22:06;2.70;;;2.50;;
56960;SDS011;42857;49.768;22.716;2022-07-06T08:24:36;3.00;;;2.70;;
56960;SDS011;42857;49.768;22.716;2022-07-06T08:27:02;2.30;;;2.20;;
56960;SDS011;42857;49.768;22.716;2022-07-06T08:29:29;3.40;;;3.10;;
56960;SDS011;42857;49.768;22.716;2022-07-06T08:31:55;2.90;;;2.70;;
56960;SDS011;42857;49.768;22.716;2022-07-06T08:34:21;2.92;;;2.72;;
56960;SDS011;42857;49.768;22.716;2022-07-06T08:36:47;3.00;;;2.80;;
56960;SDS011;42857;49.768;22.716;2022-07-06T08:39:13;3.45;;;3.15;;
56960;SDS011;42857;49.768;22.716;2022-07-06T08:41:40;3.42;;;3.22;;
56960;SDS011;42857;49.768;22.716;2022-07-06T08:44:07;3.33;;;3.13;;
56960;SDS011;42857;49.768;22.716;2022-07-06T08:46:33;6.03;;;5.30;;
56960;SDS011;42857;49.768;22.716;2022-07-06T08:49:00;3.20;;;3.00;;
56960;SDS011;42857;49.768;22.716;2022-07-06T08:51:27;4.32;;;2.97;;
56960;SDS011;42857;49.768;22.716;2022-07-06T08:53:53;4.65;;;2.83;;
56960;SDS011;42857;49.768;22.716;2022-07-06T08:56:19;3.53;;;3.20;;
56960;SDS011;42857;49.768;22.716;2022-07-06T08:58:45;3.15;;;2.95;;
56960;SDS011;42857;49.768;22.716;2022-07-06T09:01:11;3.15;;;2.95;;
56960;SDS011;42857;49.768;22.716;2022-07-06T09:03:41;3.15;;;2.90;;
56960;SDS011;42857;49.768;22.716;2022-07-06T09:06:07;3.35;;;2.70;;
56960;SDS011;42857;49.768;22.716;2022-07-06T09:08:33;3.40;;;3.20;;
56960;SDS011;42857;49.768;22.716;2022-07-06T09:11:01;4.90;;;3.60;;
56960;SDS011;42857;49.768;22.716;2022-07-06T09:13:28;3.92;;;3.63;;
56960;SDS011;42857;49.768;22.716;2022-07-06T09:15:55;3.80;;;3.50;;
56960;SDS011;42857;49.768;22.716;2022-07-06T09:18:21;4.25;;;3.58;;
56960;SDS011;42857;49.768;22.716;2022-07-06T09:20:47;4.22;;;3.85;;
56960;SDS011;42857;49.768;22.716;2022-07-06T09:23:15;3.85;;;3.35;;
56960;SDS011;42857;49.768;22.716;2022-07-06T09:25:42;3.50;;;3.20;;
56960;SDS011;42857;49.768;22.716;2022-07-06T09:28:13;2.92;;;2.72;;
56960;SDS011;42857;49.768;22.716;2022-07-06T09:30:38;4.03;;;3.30;;
56960;SDS011;42857;49.768;22.716;2022-07-06T09:33:06;3.53;;;3.22;;
56960;SDS011;42857;49.768;22.716;2022-07-06T09:35:37;4.60;;;3.53;;
56960;SDS011;42857;49.768;22.716;2022-07-06T09:38:07;3.00;;;2.80;;
56960;SDS011;42857;49.768;22.716;2022-07-06T12:10:34;1.88;;;1.70;;
56960;SDS011;42857;49.768;22.716;2022-07-06T12:13:03;2.53;;;1.67;;
56960;SDS011;42857;49.768;22.716;2022-07-06T12:18:36;1.65;;;1.55;;
56960;SDS011;42857;49.768;22.716;2022-07-06T12:21:02;1.50;;;1.40;;
56960;SDS011;42857;49.768;22.716;2022-07-06T12:23:37;1.80;;;1.70;;
56960;SDS011;42857;49.768;22.716;2022-07-06T12:26:03;2.47;;;1.73;;
56960;SDS011;42857;49.768;22.716;2022-07-06T12:28:29;1.80;;;1.70;;
56960;SDS011;42857;49.768;22.716;2022-07-06T12:30:55;2.22;;;1.80;;
56960;SDS011;42857;49.768;22.716;2022-07-06T12:33:21;2.10;;;2.00;;
56960;SDS011;42857;49.768;22.716;2022-07-06T12:35:47;4.45;;;1.85;;
56960;SDS011;42857;49.768;22.716;2022-07-06T12:50:37;2.35;;;2.00;;
56960;SDS011;42857;49.768;22.716;2022-07-06T12:53:04;2.22;;;1.83;;
56960;SDS011;42857;49.768;22.716;2022-07-06T12:55:30;4.22;;;1.95;;
56960;SDS011;42857;49.768;22.716;2022-07-06T12:57:57;2.10;;;2.00;;
56960;SDS011;42857;49.768;22.716;2022-07-06T13:00:24;2.88;;;2.55;;
56960;SDS011;42857;49.768;22.716;2022-07-06T13:02:51;2.70;;;2.30;;
56960;SDS011;42857;49.768;22.716;2022-07-06T13:05:27;2.63;;;2.17;;
56960;SDS011;42857;49.768;22.716;2022-07-06T13:07:53;2.17;;;1.90;;
56960;SDS011;42857;49.768;22.716;2022-07-06T13:10:20;2.03;;;1.83;;
56960;SDS011;42857;49.768;22.716;2022-07-06T13:12:47;3.08;;;2.15;;
56960;SDS011;42857;49.768;22.716;2022-07-06T13:15:13;2.25;;;1.92;;
56960;SDS011;42857;49.768;22.716;2022-07-06T13:17:42;3.83;;;2.17;;
56960;SDS011;42857;49.768;22.716;2022-07-06T13:20:10;2.67;;;2.35;;
56960;SDS011;42857;49.768;22.716;2022-07-06T13:22:36;4.07;;;2.20;;
56960;SDS011;42857;49.768;22.716;2022-07-06T13:25:02;2.58;;;2.20;;
56960;SDS011;42857;49.768;22.716;2022-07-06T13:27:28;2.90;;;2.63;;
56960;SDS011;42857;49.768;22.716;2022-07-06T13:29:55;2.35;;;2.15;;
56960;SDS011;42857;49.768;22.716;2022-07-06T13:32:21;2.28;;;2.17;;
56960;SDS011;42857;49.768;22.716;2022-07-06T13:34:47;3.63;;;2.10;;
56960;SDS011;42857;49.768;22.716;2022-07-06T13:37:13;3.50;;;2.13;;
56960;SDS011;42857;49.768;22.716;2022-07-06T13:39:39;2.42;;;2.08;;
56960;SDS011;42857;49.768;22.716;2022-07-06T13:42:05;2.45;;;2.00;;
56960;SDS011;42857;49.768;22.716;2022-07-06T13:44:32;2.22;;;2.03;;
56960;SDS011;42857;49.768;22.716;2022-07-06T13:46:59;2.65;;;2.45;;
56960;SDS011;42857;49.768;22.716;2022-07-06T13:49:25;2.47;;;2.38;;
56960;SDS011;42857;49.768;22.716;2022-07-06T13:51:51;2.83;;;2.60;;
56960;SDS011;42857;49.768;22.716;2022-07-06T13:54:17;2.95;;;2.63;;
56960;SDS011;42857;49.768;22.716;2022-07-06T13:56:43;5.43;;;2.50;;
56960;SDS011;42857;49.768;22.716;2022-07-06T13:59:09;2.58;;;2.38;;
56960;SDS011;42857;49.768;22.716;2022-07-06T14:01:35;2.40;;;2.20;;
56960;SDS011;42857;49.768;22.716;2022-07-06T14:04:01;3.45;;;2.60;;
56960;SDS011;42857;49.768;22.716;2022-07-06T14:06:27;3.75;;;2.72;;
56960;SDS011;42857;49.768;22.716;2022-07-06T14:08:53;3.42;;;2.95;;
56960;SDS011;42857;49.768;22.716;2022-07-06T14:11:19;3.15;;;2.92;;
56960;SDS011;42857;49.768;22.716;2022-07-06T14:13:45;3.35;;;2.92;;
56960;SDS011;42857;49.768;22.716;2022-07-06T14:16:11;3.85;;;2.90;;
56960;SDS011;42857;49.768;22.716;2022-07-06T14:18:37;3.03;;;2.83;;
56960;SDS011;42857;49.768;22.716;2022-07-06T14:21:03;3.35;;;3.00;;
56960;SDS011;42857;49.768;22.716;2022-07-06T14:23:29;3.63;;;3.33;;
56960;SDS011;42857;49.768;22.716;2022-07-06T14:25:56;3.65;;;3.35;;
56960;SDS011;42857;49.768;22.716;2022-07-06T14:28:22;3.65;;;3.35;;
56960;SDS011;42857;49.768;22.716;2022-07-06T14:30:48;3.85;;;3.50;;
56960;SDS011;42857;49.768;22.716;2022-07-06T14:33:14;3.72;;;3.42;;
56960;SDS011;42857;49.768;22.716;2022-07-06T14:35:47;5.13;;;3.58;;
56960;SDS011;42857;49.768;22.716;2022-07-06T14:38:14;3.75;;;3.40;;
56960;SDS011;42857;49.768;22.716;2022-07-06T14:40:40;5.65;;;3.30;;
56960;SDS011;42857;49.768;22.716;2022-07-06T14:43:06;3.95;;;3.58;;
56960;SDS011;42857;49.768;22.716;2022-07-06T14:45:32;3.53;;;3.10;;
56960;SDS011;42857;49.768;22.716;2022-07-06T14:47:58;4.65;;;3.55;;
56960;SDS011;42857;49.768;22.716;2022-07-06T14:50:24;3.30;;;2.92;;
56960;SDS011;42857;49.768;22.716;2022-07-06T14:52:53;3.38;;;3.08;;
56960;SDS011;42857;49.768;22.716;2022-07-06T14:55:20;5.03;;;3.28;;
56960;SDS011;42857;49.768;22.716;2022-07-06T14:57:47;3.65;;;3.35;;
56960;SDS011;42857;49.768;22.716;2022-07-06T15:00:13;3.50;;;3.20;;
56960;SDS011;42857;49.768;22.716;2022-07-06T15:02:40;3.65;;;3.35;;
56960;SDS011;42857;49.768;22.716;2022-07-06T15:05:18;4.75;;;3.30;;
56960;SDS011;42857;49.768;22.716;2022-07-06T15:07:48;3.80;;;3.50;;
56960;SDS011;42857;49.768;22.716;2022-07-06T15:10:14;3.70;;;3.40;;
56960;SDS011;42857;49.768;22.716;2022-07-06T15:12:40;3.80;;;3.50;;
56960;SDS011;42857;49.768;22.716;2022-07-06T15:15:06;3.70;;;3.40;;
56960;SDS011;42857;49.768;22.716;2022-07-06T15:17:32;3.60;;;3.30;;
56960;SDS011;42857;49.768;22.716;2022-07-06T15:19:58;3.47;;;3.17;;
56960;SDS011;42857;49.768;22.716;2022-07-06T15:22:25;4.60;;;3.55;;
56960;SDS011;42857;49.768;22.716;2022-07-06T15:24:51;4.00;;;3.50;;
56960;SDS011;42857;49.768;22.716;2022-07-06T15:27:17;4.35;;;3.90;;
56960;SDS011;42857;49.768;22.716;2022-07-06T15:29:43;5.03;;;4.00;;
56960;SDS011;42857;49.768;22.716;2022-07-06T15:32:09;3.83;;;3.42;;
56960;SDS011;42857;49.768;22.716;2022-07-06T15:34:35;3.58;;;3.28;;
56960;SDS011;42857;49.768;22.716;2022-07-06T15:37:01;3.97;;;3.58;;
56960;SDS011;42857;49.768;22.716;2022-07-06T15:39:28;4.07;;;3.65;;
56960;SDS011;42857;49.768;22.716;2022-07-06T15:41:54;4.05;;;3.65;;
56960;SDS011;42857;49.768;22.716;2022-07-06T15:44:20;4.57;;;3.83;;
56960;SDS011;42857;49.768;22.716;2022-07-06T15:46:45;4.22;;;3.83;;
56960;SDS011;42857;49.768;22.716;2022-07-06T15:49:13;3.95;;;3.55;;
56960;SDS011;42857;49.768;22.716;2022-07-06T15:51:39;4.35;;;3.72;;
56960;SDS011;42857;49.768;22.716;2022-07-06T15:54:05;4.38;;;4.03;;
56960;SDS011;42857;49.768;22.716;2022-07-06T15:56:31;4.93;;;4.32;;
56960;SDS011;42857;49.768;22.716;2022-07-06T15:58:57;4.55;;;4.15;;
56960;SDS011;42857;49.768;22.716;2022-07-06T16:01:23;4.78;;;4.35;;
56960;SDS011;42857;49.768;22.716;2022-07-06T16:03:49;4.88;;;4.07;;
56960;SDS011;42857;49.768;22.716;2022-07-06T16:06:15;5.38;;;4.28;;
56960;SDS011;42857;49.768;22.716;2022-07-06T16:08:41;4.50;;;4.10;;
56960;SDS011;42857;49.768;22.716;2022-07-06T16:11:07;5.20;;;4.20;;
56960;SDS011;42857;49.768;22.716;2022-07-06T16:13:33;5.07;;;4.13;;
56960;SDS011;42857;49.768;22.716;2022-07-06T16:15:59;4.68;;;4.28;;
56960;SDS011;42857;49.768;22.716;2022-07-06T16:18:25;4.80;;;4.28;;
56960;SDS011;42857;49.768;22.716;2022-07-06T16:20:51;4.75;;;4.35;;
56960;SDS011;42857;49.768;22.716;2022-07-06T16:23:17;4.65;;;4.15;;
56960;SDS011;42857;49.768;22.716;2022-07-06T16:25:43;4.22;;;3.75;;
56960;SDS011;42857;49.768;22.716;2022-07-06T16:28:09;4.75;;;4.35;;
56960;SDS011;42857;49.768;22.716;2022-07-06T16:30:35;4.72;;;4.32;;
56960;SDS011;42857;49.768;22.716;2022-07-06T16:33:01;5.22;;;4.72;;
56960;SDS011;42857;49.768;22.716;2022-07-06T16:35:27;5.65;;;4.78;;
56960;SDS011;42857;49.768;22.716;2022-07-06T16:37:55;5.70;;;5.10;;
56960;SDS011;42857;49.768;22.716;2022-07-06T16:40:21;5.75;;;5.28;;
56960;SDS011;42857;49.768;22.716;2022-07-06T16:42:47;5.88;;;5.28;;
56960;SDS011;42857;49.768;22.716;2022-07-06T16:45:13;7.65;;;5.68;;
56960;SDS011;42857;49.768;22.716;2022-07-06T16:47:39;5.85;;;5.30;;
56960;SDS011;42857;49.768;22.716;2022-07-06T16:50:05;7.32;;;5.43;;
56960;SDS011;42857;49.768;22.716;2022-07-06T16:52:31;5.40;;;4.90;;
56960;SDS011;42857;49.768;22.716;2022-07-06T16:54:57;5.05;;;4.65;;
56960;SDS011;42857;49.768;22.716;2022-07-06T16:57:23;6.35;;;5.50;;
56960;SDS011;42857;49.768;22.716;2022-07-06T16:59:49;6.90;;;5.38;;
56960;SDS011;42857;49.768;22.716;2022-07-06T17:02:15;6.18;;;5.28;;
56960;SDS011;42857;49.768;22.716;2022-07-06T17:04:42;6.22;;;5.30;;
56960;SDS011;42857;49.768;22.716;2022-07-06T17:07:08;5.47;;;4.60;;
56960;SDS011;42857;49.768;22.716;2022-07-06T17:09:34;6.03;;;5.40;;
56960;SDS011;42857;49.768;22.716;2022-07-06T17:12:00;9.73;;;5.30;;